sensor_id;sensor_type;location;lat;lon;timestamp;P1;P2;P0
56495;PMS5003;42804;55.762;38.084;2023-08-17T00:01:11;34.00;32.25;22.00
56495;PMS5003;42804;55.762;38.084;2023-08-17T00:03:39;31.75;27.50;18.25
56495;PMS5003;42804;55.762;38.084;2023-08-17T00:06:08;32.25;30.00;19.75
56495;PMS5003;42804;55.762;38.084;2023-08-17T00:08:36;26.25;25.25;16.75
56495;PMS5003;42804;55.762;38.084;2023-08-17T00:11:04;33.25;29.75;21.25
56495;PMS5003;42804;55.762;38.084;2023-08-17T00:13:32;34.75;31.50;22.00
56495;PMS5003;42804;55.762;38.084;2023-08-17T00:16:02;34.25;33.00;22.00
56495;PMS5003;42804;55.762;38.084;2023-08-17T00:18:31;31.25;29.25;21.50
56495;PMS5003;42804;55.762;38.084;2023-08-17T00:20:59;32.25;30.25;22.00
56495;PMS5003;42804;55.762;38.084;2023-08-17T00:23:28;29.00;28.00;21.00
56495;PMS5003;42804;55.762;38.084;2023-08-17T00:25:56;27.00;26.50;18.50
56495;PMS5003;42804;55.762;38.084;2023-08-17T00:28:24;29.75;29.00;21.25
56495;PMS5003;42804;55.762;38.084;2023-08-17T00:30:52;33.00;32.00;22.00
56495;PMS5003;42804;55.762;38.084;2023-08-17T00:33:22;30.50;28.25;19.50
56495;PMS5003;42804;55.762;38.084;2023-08-17T00:35:50;29.00;28.00;21.25
56495;PMS5003;42804;55.762;38.084;2023-08-17T00:38:19;33.50;32.25;22.50
56495;PMS5003;42804;55.762;38.084;2023-08-17T00:40:47;33.25;31.50;22.25
56495;PMS5003;42804;55.762;38.084;2023-08-17T00:43:16;31.00;28.50;22.00
56495;PMS5003;42804;55.762;38.084;2023-08-17T00:45:44;34.00;33.00;22.00
56495;PMS5003;42804;55.762;38.084;2023-08-17T00:48:14;32.00;29.50;21.75
56495;PMS5003;42804;55.762;38.084;2023-08-17T00:50:44;30.25;29.50;22.25
56495;PMS5003;42804;55.762;38.084;2023-08-17T00:53:14;26.50;24.50;15.25
56495;PMS5003;42804;55.762;38.084;2023-08-17T00:55:43;13.00;13.00;2.00
56495;PMS5003;42804;55.762;38.084;2023-08-17T00:58:11;37.25;34.75;23.00
56495;PMS5003;42804;55.762;38.084;2023-08-17T01:00:40;36.50;34.50;22.25
56495;PMS5003;42804;55.762;38.084;2023-08-17T01:03:09;37.75;35.25;23.75
56495;PMS5003;42804;55.762;38.084;2023-08-17T01:05:37;39.75;36.00;24.00
56495;PMS5003;42804;55.762;38.084;2023-08-17T01:08:07;40.50;36.50;24.00
56495;PMS5003;42804;55.762;38.084;2023-08-17T01:10:39;38.75;34.25;24.75
56495;PMS5003;42804;55.762;38.084;2023-08-17T01:13:10;37.25;33.50;24.25
56495;PMS5003;42804;55.762;38.084;2023-08-17T01:15:42;40.50;36.00;24.00
56495;PMS5003;42804;55.762;38.084;2023-08-17T01:18:16;40.25;34.50;23.00
56495;PMS5003;42804;55.762;38.084;2023-08-17T01:20:45;40.00;36.00;24.25
56495;PMS5003;42804;55.762;38.084;2023-08-17T01:23:15;39.75;35.75;24.00
56495;PMS5003;42804;55.762;38.084;2023-08-17T01:25:44;41.75;36.00;22.75
56495;PMS5003;42804;55.762;38.084;2023-08-17T01:28:12;39.75;35.00;24.50
56495;PMS5003;42804;55.762;38.084;2023-08-17T01:30:43;40.25;34.00;22.00
56495;PMS5003;42804;55.762;38.084;2023-08-17T01:33:14;36.25;33.00;23.00
56495;PMS5003;42804;55.762;38.084;2023-08-17T01:35:44;39.25;35.75;23.25
56495;PMS5003;42804;55.762;38.084;2023-08-17T01:38:16;25.50;25.50;21.00
56495;PMS5003;42804;55.762;38.084;2023-08-17T01:40:45;33.00;31.00;22.00
56495;PMS5003;42804;55.762;38.084;2023-08-17T01:43:13;28.75;28.75;19.00
56495;PMS5003;42804;55.762;38.084;2023-08-17T01:45:44;29.75;28.75;22.00
56495;PMS5003;42804;55.762;38.084;2023-08-17T01:48:12;37.75;34.75;24.00
56495;PMS5003;42804;55.762;38.084;2023-08-17T01:50:41;33.75;32.75;22.00
56495;PMS5003;42804;55.762;38.084;2023-08-17T01:53:10;36.75;33.00;22.50
56495;PMS5003;42804;55.762;38.084;2023-08-17T01:55:40;42.25;36.00;24.00
56495;PMS5003;42804;55.762;38.084;2023-08-17T01:58:08;38.25;33.00;22.00
56495;PMS5003;42804;55.762;38.084;2023-08-17T02:00:37;34.00;33.00;22.25
56495;PMS5003;42804;55.762;38.084;2023-08-17T02:03:05;35.50;31.25;21.00
56495;PMS5003;42804;55.762;38.084;2023-08-17T02:05:33;37.50;34.00;23.00
56495;PMS5003;42804;55.762;38.084;2023-08-17T02:08:02;29.25;27.75;19.50
56495;PMS5003;42804;55.762;38.084;2023-08-17T02:10:30;23.00;22.00;13.00
56495;PMS5003;42804;55.762;38.084;2023-08-17T02:13:00;31.50;29.25;21.00
56495;PMS5003;42804;55.762;38.084;2023-08-17T02:15:43;35.00;32.00;21.50
56495;PMS5003;42804;55.762;38.084;2023-08-17T02:18:12;33.00;32.00;22.50
56495;PMS5003;42804;55.762;38.084;2023-08-17T02:20:42;32.50;30.75;20.25
56495;PMS5003;42804;55.762;38.084;2023-08-17T02:23:10;26.50;26.50;21.25
56495;PMS5003;42804;55.762;38.084;2023-08-17T02:25:39;30.75;29.75;20.75
56495;PMS5003;42804;55.762;38.084;2023-08-17T02:28:08;29.50;29.00;20.50
56495;PMS5003;42804;55.762;38.084;2023-08-17T02:30:37;30.25;29.25;21.25
56495;PMS5003;42804;55.762;38.084;2023-08-17T02:33:05;29.25;28.00;19.00
56495;PMS5003;42804;55.762;38.084;2023-08-17T02:35:33;24.75;24.75;19.50
56495;PMS5003;42804;55.762;38.084;2023-08-17T02:38:01;24.25;23.00;19.50
56495;PMS5003;42804;55.762;38.084;2023-08-17T02:40:30;14.25;13.50;7.00
56495;PMS5003;42804;55.762;38.084;2023-08-17T02:42:58;26.50;25.75;17.50
56495;PMS5003;42804;55.762;38.084;2023-08-17T02:45:28;28.25;27.75;21.00
56495;PMS5003;42804;55.762;38.084;2023-08-17T02:47:57;26.00;25.25;18.50
56495;PMS5003;42804;55.762;38.084;2023-08-17T02:50:25;24.00;23.50;17.25
56495;PMS5003;42804;55.762;38.084;2023-08-17T02:52:53;29.00;27.00;19.00
56495;PMS5003;42804;55.762;38.084;2023-08-17T02:55:22;25.67;23.33;15.67
56495;PMS5003;42804;55.762;38.084;2023-08-17T02:57:50;27.75;25.25;19.00
56495;PMS5003;42804;55.762;38.084;2023-08-17T03:00:18;22.50;22.50;18.00
56495;PMS5003;42804;55.762;38.084;2023-08-17T03:02:48;24.25;23.00;18.00
56495;PMS5003;42804;55.762;38.084;2023-08-17T03:05:17;16.00;16.00;10.75
56495;PMS5003;42804;55.762;38.084;2023-08-17T03:07:45;28.00;25.50;19.75
56495;PMS5003;42804;55.762;38.084;2023-08-17T03:10:13;24.00;22.00;17.25
56495;PMS5003;42804;55.762;38.084;2023-08-17T03:12:42;31.25;25.50;19.00
56495;PMS5003;42804;55.762;38.084;2023-08-17T03:15:10;27.75;26.75;18.75
56495;PMS5003;42804;55.762;38.084;2023-08-17T03:17:39;21.00;20.25;15.75
56495;PMS5003;42804;55.762;38.084;2023-08-17T03:20:11;25.50;23.50;17.75
56495;PMS5003;42804;55.762;38.084;2023-08-17T03:22:39;28.00;26.00;19.00
56495;PMS5003;42804;55.762;38.084;2023-08-17T03:25:08;27.25;26.75;18.75
56495;PMS5003;42804;55.762;38.084;2023-08-17T03:27:37;26.75;23.75;17.75
56495;PMS5003;42804;55.762;38.084;2023-08-17T03:30:06;25.50;21.75;17.00
56495;PMS5003;42804;55.762;38.084;2023-08-17T03:32:35;27.25;26.50;20.00
56495;PMS5003;42804;55.762;38.084;2023-08-17T03:35:04;12.25;10.50;7.00
56495;PMS5003;42804;55.762;38.084;2023-08-17T03:37:33;20.25;19.50;15.75
56495;PMS5003;42804;55.762;38.084;2023-08-17T03:40:02;23.00;22.50;17.00
56495;PMS5003;42804;55.762;38.084;2023-08-17T03:42:31;19.00;19.00;15.50
56495;PMS5003;42804;55.762;38.084;2023-08-17T03:45:01;22.50;21.00;17.00
56495;PMS5003;42804;55.762;38.084;2023-08-17T03:47:31;23.50;22.75;17.00
56495;PMS5003;42804;55.762;38.084;2023-08-17T03:50:00;21.50;20.50;17.00
56495;PMS5003;42804;55.762;38.084;2023-08-17T03:52:30;23.00;21.75;16.00
56495;PMS5003;42804;55.762;38.084;2023-08-17T03:55:00;22.25;20.75;15.00
56495;PMS5003;42804;55.762;38.084;2023-08-17T03:57:29;22.25;21.75;16.00
56495;PMS5003;42804;55.762;38.084;2023-08-17T04:00:00;19.25;18.25;15.50
56495;PMS5003;42804;55.762;38.084;2023-08-17T04:02:29;20.00;18.50;12.25
56495;PMS5003;42804;55.762;38.084;2023-08-17T04:04:58;20.00;20.00;14.00
56495;PMS5003;42804;55.762;38.084;2023-08-17T04:07:26;21.25;20.50;14.75
56495;PMS5003;42804;55.762;38.084;2023-08-17T04:09:55;15.00;12.75;9.25
56495;PMS5003;42804;55.762;38.084;2023-08-17T04:12:24;19.25;17.25;12.50
56495;PMS5003;42804;55.762;38.084;2023-08-17T04:14:53;17.50;17.00;13.75
56495;PMS5003;42804;55.762;38.084;2023-08-17T04:17:22;17.75;16.75;13.75
56495;PMS5003;42804;55.762;38.084;2023-08-17T04:19:51;17.50;16.75;12.25
56495;PMS5003;42804;55.762;38.084;2023-08-17T04:22:19;20.75;20.00;15.00
56495;PMS5003;42804;55.762;38.084;2023-08-17T04:24:47;17.00;17.00;12.00
56495;PMS5003;42804;55.762;38.084;2023-08-17T04:27:16;15.25;15.00;10.50
56495;PMS5003;42804;55.762;38.084;2023-08-17T04:29:46;18.25;17.00;12.00
56495;PMS5003;42804;55.762;38.084;2023-08-17T04:32:14;18.50;17.50;12.00
56495;PMS5003;42804;55.762;38.084;2023-08-17T04:34:43;17.00;16.50;12.25
56495;PMS5003;42804;55.762;38.084;2023-08-17T04:37:13;17.50;15.75;11.00
56495;PMS5003;42804;55.762;38.084;2023-08-17T04:39:42;17.50;16.25;11.75
56495;PMS5003;42804;55.762;38.084;2023-08-17T04:42:17;15.00;15.00;11.50
56495;PMS5003;42804;55.762;38.084;2023-08-17T04:44:48;19.00;18.50;13.00
56495;PMS5003;42804;55.762;38.084;2023-08-17T04:47:16;15.00;15.00;11.75
56495;PMS5003;42804;55.762;38.084;2023-08-17T04:49:45;16.00;15.50;12.00
56495;PMS5003;42804;55.762;38.084;2023-08-17T04:52:14;18.00;15.75;12.00
56495;PMS5003;42804;55.762;38.084;2023-08-17T04:54:42;18.00;15.25;11.00
56495;PMS5003;42804;55.762;38.084;2023-08-17T04:57:10;16.00;16.00;11.00
56495;PMS5003;42804;55.762;38.084;2023-08-17T04:59:40;13.00;12.50;10.00
56495;PMS5003;42804;55.762;38.084;2023-08-17T05:02:10;15.50;15.00;11.00
56495;PMS5003;42804;55.762;38.084;2023-08-17T05:04:39;13.25;12.75;9.75
56495;PMS5003;42804;55.762;38.084;2023-08-17T05:07:08;15.25;15.25;11.25
56495;PMS5003;42804;55.762;38.084;2023-08-17T05:09:37;10.50;9.75;6.50
56495;PMS5003;42804;55.762;38.084;2023-08-17T05:12:07;13.25;13.00;10.00
56495;PMS5003;42804;55.762;38.084;2023-08-17T05:14:36;16.00;15.50;12.00
56495;PMS5003;42804;55.762;38.084;2023-08-17T05:17:04;14.75;14.25;9.50
56495;PMS5003;42804;55.762;38.084;2023-08-17T05:19:34;16.25;15.25;10.25
56495;PMS5003;42804;55.762;38.084;2023-08-17T05:22:09;14.00;14.00;10.50
56495;PMS5003;42804;55.762;38.084;2023-08-17T05:24:38;14.50;14.00;10.00
56495;PMS5003;42804;55.762;38.084;2023-08-17T05:27:07;13.00;12.75;10.00
56495;PMS5003;42804;55.762;38.084;2023-08-17T05:29:36;14.50;13.50;10.25
56495;PMS5003;42804;55.762;38.084;2023-08-17T05:32:05;13.25;13.25;9.00
56495;PMS5003;42804;55.762;38.084;2023-08-17T05:34:35;12.00;11.25;7.50
56495;PMS5003;42804;55.762;38.084;2023-08-17T05:37:03;9.50;9.50;6.75
56495;PMS5003;42804;55.762;38.084;2023-08-17T05:39:32;14.00;14.00;10.50
56495;PMS5003;42804;55.762;38.084;2023-08-17T05:42:02;12.75;12.50;9.00
56495;PMS5003;42804;55.762;38.084;2023-08-17T05:44:30;11.75;11.50;9.50
56495;PMS5003;42804;55.762;38.084;2023-08-17T05:46:59;13.00;13.00;9.50
56495;PMS5003;42804;55.762;38.084;2023-08-17T05:49:27;13.00;11.75;9.00
56495;PMS5003;42804;55.762;38.084;2023-08-17T05:51:57;13.50;13.50;10.75
56495;PMS5003;42804;55.762;38.084;2023-08-17T05:54:25;12.00;11.75;8.25
56495;PMS5003;42804;55.762;38.084;2023-08-17T05:56:53;11.50;11.50;8.00
56495;PMS5003;42804;55.762;38.084;2023-08-17T05:59:22;10.50;10.50;7.50
56495;PMS5003;42804;55.762;38.084;2023-08-17T06:01:50;12.50;12.25;8.75
56495;PMS5003;42804;55.762;38.084;2023-08-17T06:04:18;11.00;10.50;8.75
56495;PMS5003;42804;55.762;38.084;2023-08-17T06:06:47;11.25;11.00;9.00
56495;PMS5003;42804;55.762;38.084;2023-08-17T06:09:17;9.50;9.50;7.25
56495;PMS5003;42804;55.762;38.084;2023-08-17T06:11:45;10.50;10.50;8.25
56495;PMS5003;42804;55.762;38.084;2023-08-17T06:14:16;8.00;7.75;6.00
56495;PMS5003;42804;55.762;38.084;2023-08-17T06:16:45;8.20;8.20;6.40
56495;PMS5003;42804;55.762;38.084;2023-08-17T06:19:13;8.25;8.00;7.00
56495;PMS5003;42804;55.762;38.084;2023-08-17T06:21:42;10.00;10.00;7.50
56495;PMS5003;42804;55.762;38.084;2023-08-17T06:24:10;9.80;9.20;6.60
56495;PMS5003;42804;55.762;38.084;2023-08-17T06:26:40;7.60;6.80;5.00
56495;PMS5003;42804;55.762;38.084;2023-08-17T06:29:08;6.20;6.20;4.40
56495;PMS5003;42804;55.762;38.084;2023-08-17T06:31:36;5.80;5.80;4.40
56495;PMS5003;42804;55.762;38.084;2023-08-17T06:34:05;7.00;7.00;5.00
56495;PMS5003;42804;55.762;38.084;2023-08-17T06:36:33;5.80;5.80;4.20
56495;PMS5003;42804;55.762;38.084;2023-08-17T06:39:01;6.50;6.00;5.00
56495;PMS5003;42804;55.762;38.084;2023-08-17T06:41:31;6.80;6.80;5.00
56495;PMS5003;42804;55.762;38.084;2023-08-17T06:44:00;6.60;6.60;4.20
56495;PMS5003;42804;55.762;38.084;2023-08-17T06:46:29;7.00;7.00;5.00
56495;PMS5003;42804;55.762;38.084;2023-08-17T06:48:57;6.40;6.40;4.20
56495;PMS5003;42804;55.762;38.084;2023-08-17T06:51:26;7.80;7.00;5.80
56495;PMS5003;42804;55.762;38.084;2023-08-17T06:53:54;7.20;7.00;5.60
56495;PMS5003;42804;55.762;38.084;2023-08-17T06:56:22;6.00;6.00;4.00
56495;PMS5003;42804;55.762;38.084;2023-08-17T06:58:51;6.00;6.00;5.00
56495;PMS5003;42804;55.762;38.084;2023-08-17T07:01:20;5.75;5.75;4.25
56495;PMS5003;42804;55.762;38.084;2023-08-17T07:03:49;7.00;7.00;5.00
56495;PMS5003;42804;55.762;38.084;2023-08-17T07:06:17;7.25;6.50;5.00
56495;PMS5003;42804;55.762;38.084;2023-08-17T07:08:46;8.00;7.00;5.20
56495;PMS5003;42804;55.762;38.084;2023-08-17T07:11:14;6.00;6.00;5.00
56495;PMS5003;42804;55.762;38.084;2023-08-17T07:13:43;6.75;6.25;5.00
56495;PMS5003;42804;55.762;38.084;2023-08-17T07:16:12;7.50;7.50;6.00
56495;PMS5003;42804;55.762;38.084;2023-08-17T07:18:41;5.80;5.80;4.40
56495;PMS5003;42804;55.762;38.084;2023-08-17T07:21:10;6.20;5.20;3.80
56495;PMS5003;42804;55.762;38.084;2023-08-17T07:23:38;7.00;6.75;4.50
56495;PMS5003;42804;55.762;38.084;2023-08-17T07:26:07;5.00;5.00;3.00
56495;PMS5003;42804;55.762;38.084;2023-08-17T07:28:38;4.20;3.60;2.80
56495;PMS5003;42804;55.762;38.084;2023-08-17T07:31:07;6.00;5.60;4.00
56495;PMS5003;42804;55.762;38.084;2023-08-17T07:33:35;5.00;4.80;4.00
56495;PMS5003;42804;55.762;38.084;2023-08-17T07:36:05;7.00;5.40;4.00
56495;PMS5003;42804;55.762;38.084;2023-08-17T07:38:33;4.80;4.80;3.20
56495;PMS5003;42804;55.762;38.084;2023-08-17T07:41:02;3.20;3.20;2.00
56495;PMS5003;42804;55.762;38.084;2023-08-17T07:43:31;4.80;4.20;3.00
56495;PMS5003;42804;55.762;38.084;2023-08-17T07:46:00;6.00;5.00;3.40
56495;PMS5003;42804;55.762;38.084;2023-08-17T07:48:28;5.00;5.00;3.20
56495;PMS5003;42804;55.762;38.084;2023-08-17T07:51:00;7.40;5.80;4.60
56495;PMS5003;42804;55.762;38.084;2023-08-17T07:53:30;4.20;4.20;3.20
56495;PMS5003;42804;55.762;38.084;2023-08-17T07:55:58;5.60;5.40;4.80
56495;PMS5003;42804;55.762;38.084;2023-08-17T07:58:26;7.00;7.00;5.20
56495;PMS5003;42804;55.762;38.084;2023-08-17T08:00:56;7.60;7.00;5.00
56495;PMS5003;42804;55.762;38.084;2023-08-17T08:03:25;7.20;7.00;5.00
56495;PMS5003;42804;55.762;38.084;2023-08-17T08:05:53;7.60;7.60;5.60
56495;PMS5003;42804;55.762;38.084;2023-08-17T08:08:21;3.20;2.00;0.80
56495;PMS5003;42804;55.762;38.084;2023-08-17T08:10:52;9.00;7.00;5.00
56495;PMS5003;42804;55.762;38.084;2023-08-17T08:13:21;5.00;5.00;4.00
56495;PMS5003;42804;55.762;38.084;2023-08-17T08:15:49;4.80;4.80;4.60
56495;PMS5003;42804;55.762;38.084;2023-08-17T08:18:17;5.40;5.40;4.80
56495;PMS5003;42804;55.762;38.084;2023-08-17T08:20:46;6.25;6.25;4.25
56495;PMS5003;42804;55.762;38.084;2023-08-17T08:23:14;4.00;4.00;3.00
56495;PMS5003;42804;55.762;38.084;2023-08-17T08:25:43;3.60;3.60;2.60
56495;PMS5003;42804;55.762;38.084;2023-08-17T08:28:12;7.40;7.00;5.00
56495;PMS5003;42804;55.762;38.084;2023-08-17T08:30:41;2.00;1.60;1.00
56495;PMS5003;42804;55.762;38.084;2023-08-17T08:33:10;4.20;4.20;3.20
56495;PMS5003;42804;55.762;38.084;2023-08-17T08:35:38;5.60;5.60;3.40
56495;PMS5003;42804;55.762;38.084;2023-08-17T08:38:06;7.20;7.20;4.80
56495;PMS5003;42804;55.762;38.084;2023-08-17T08:40:37;4.00;4.00;3.00
56495;PMS5003;42804;55.762;38.084;2023-08-17T08:43:06;7.00;7.00;5.00
56495;PMS5003;42804;55.762;38.084;2023-08-17T08:45:37;4.80;4.80;4.00
56495;PMS5003;42804;55.762;38.084;2023-08-17T08:48:08;6.00;5.25;4.25
56495;PMS5003;42804;55.762;38.084;2023-08-17T08:50:36;5.80;5.80;4.20
56495;PMS5003;42804;55.762;38.084;2023-08-17T08:53:09;6.60;6.00;4.40
56495;PMS5003;42804;55.762;38.084;2023-08-17T08:55:38;9.25;9.00;7.75
56495;PMS5003;42804;55.762;38.084;2023-08-17T08:58:11;7.60;7.60;5.60
56495;PMS5003;42804;55.762;38.084;2023-08-17T09:00:42;8.40;7.00;5.20
56495;PMS5003;42804;55.762;38.084;2023-08-17T09:03:11;8.00;8.00;6.40
56495;PMS5003;42804;55.762;38.084;2023-08-17T09:05:41;10.25;9.50;7.00
56495;PMS5003;42804;55.762;38.084;2023-08-17T09:08:10;7.75;7.50;5.75
56495;PMS5003;42804;55.762;38.084;2023-08-17T09:10:43;7.75;7.75;5.00
56495;PMS5003;42804;55.762;38.084;2023-08-17T09:13:12;7.25;7.25;5.25
56495;PMS5003;42804;55.762;38.084;2023-08-17T09:15:41;8.00;7.40;5.60
56495;PMS5003;42804;55.762;38.084;2023-08-17T09:18:10;6.60;6.60;5.60
56495;PMS5003;42804;55.762;38.084;2023-08-17T09:20:40;6.80;6.80;5.00
56495;PMS5003;42804;55.762;38.084;2023-08-17T09:23:12;9.00;9.00;7.00
56495;PMS5003;42804;55.762;38.084;2023-08-17T09:25:42;8.00;8.00;6.00
56495;PMS5003;42804;55.762;38.084;2023-08-17T09:28:11;7.75;7.00;6.00
56495;PMS5003;42804;55.762;38.084;2023-08-17T09:30:51;7.00;7.00;5.00
56495;PMS5003;42804;55.762;38.084;2023-08-17T09:33:21;8.00;7.00;5.75
56495;PMS5003;42804;55.762;38.084;2023-08-17T09:35:49;6.60;6.40;4.80
56495;PMS5003;42804;55.762;38.084;2023-08-17T09:38:23;7.50;7.50;5.75
56495;PMS5003;42804;55.762;38.084;2023-08-17T09:40:52;7.20;6.20;4.40
56495;PMS5003;42804;55.762;38.084;2023-08-17T09:43:20;8.00;7.50;6.00
56495;PMS5003;42804;55.762;38.084;2023-08-17T09:45:49;7.20;7.20;6.00
56495;PMS5003;42804;55.762;38.084;2023-08-17T09:48:19;8.80;7.80;6.00
56495;PMS5003;42804;55.762;38.084;2023-08-17T09:50:48;8.00;8.00;6.20
56495;PMS5003;42804;55.762;38.084;2023-08-17T09:53:16;8.00;8.00;6.50
56495;PMS5003;42804;55.762;38.084;2023-08-17T09:55:45;9.75;9.75;6.75
56495;PMS5003;42804;55.762;38.084;2023-08-17T09:58:14;7.50;7.50;5.25
56495;PMS5003;42804;55.762;38.084;2023-08-17T10:00:43;8.60;8.00;6.40
56495;PMS5003;42804;55.762;38.084;2023-08-17T10:03:21;5.50;5.50;4.50
56495;PMS5003;42804;55.762;38.084;2023-08-17T10:05:52;7.60;7.60;5.80
56495;PMS5003;42804;55.762;38.084;2023-08-17T10:08:23;8.50;8.50;6.75
56495;PMS5003;42804;55.762;38.084;2023-08-17T10:10:55;8.80;8.20;6.60
56495;PMS5003;42804;55.762;38.084;2023-08-17T10:13:27;8.50;8.50;6.50
56495;PMS5003;42804;55.762;38.084;2023-08-17T10:15:57;8.00;7.80;6.20
56495;PMS5003;42804;55.762;38.084;2023-08-17T10:18:33;7.20;6.40;5.00
56495;PMS5003;42804;55.762;38.084;2023-08-17T10:21:05;8.00;8.00;6.00
56495;PMS5003;42804;55.762;38.084;2023-08-17T10:23:34;8.00;7.75;5.00
56495;PMS5003;42804;55.762;38.084;2023-08-17T10:26:09;8.20;8.00;6.00
56495;PMS5003;42804;55.762;38.084;2023-08-17T10:28:38;8.00;7.80;6.00
56495;PMS5003;42804;55.762;38.084;2023-08-17T10:31:09;10.60;9.40;7.40
56495;PMS5003;42804;55.762;38.084;2023-08-17T10:33:40;8.50;8.25;6.50
56495;PMS5003;42804;55.762;38.084;2023-08-17T10:36:11;7.20;7.20;5.80
56495;PMS5003;42804;55.762;38.084;2023-08-17T10:38:40;9.00;8.75;7.00
56495;PMS5003;42804;55.762;38.084;2023-08-17T10:41:09;7.40;7.40;4.80
56495;PMS5003;42804;55.762;38.084;2023-08-17T10:43:53;9.00;8.75;7.25
56495;PMS5003;42804;55.762;38.084;2023-08-17T10:46:21;7.75;7.75;5.50
56495;PMS5003;42804;55.762;38.084;2023-08-17T10:48:51;7.75;7.75;6.00
56495;PMS5003;42804;55.762;38.084;2023-08-17T10:51:20;8.00;8.00;6.25
56495;PMS5003;42804;55.762;38.084;2023-08-17T10:53:51;8.00;8.00;5.75
56495;PMS5003;42804;55.762;38.084;2023-08-17T10:56:20;8.50;8.00;6.00
56495;PMS5003;42804;55.762;38.084;2023-08-17T10:58:54;7.80;7.80;6.60
56495;PMS5003;42804;55.762;38.084;2023-08-17T11:01:31;10.00;9.25;7.00
56495;PMS5003;42804;55.762;38.084;2023-08-17T11:04:12;6.75;6.50;5.50
56495;PMS5003;42804;55.762;38.084;2023-08-17T11:06:43;8.75;8.75;7.75
56495;PMS5003;42804;55.762;38.084;2023-08-17T11:09:12;8.75;8.75;7.00
56495;PMS5003;42804;55.762;38.084;2023-08-17T11:11:44;9.00;9.00;7.00
56495;PMS5003;42804;55.762;38.084;2023-08-17T11:14:19;8.75;8.25;6.75
56495;PMS5003;42804;55.762;38.084;2023-08-17T11:16:48;6.00;6.00;4.75
56495;PMS5003;42804;55.762;38.084;2023-08-17T11:19:18;8.50;8.00;6.75
56495;PMS5003;42804;55.762;38.084;2023-08-17T11:21:49;8.00;8.00;6.00
56495;PMS5003;42804;55.762;38.084;2023-08-17T11:24:17;8.25;8.25;7.00
56495;PMS5003;42804;55.762;38.084;2023-08-17T11:26:46;8.00;8.00;6.25
56495;PMS5003;42804;55.762;38.084;2023-08-17T11:29:14;9.00;9.00;7.00
56495;PMS5003;42804;55.762;38.084;2023-08-17T11:31:43;8.75;8.75;7.00
56495;PMS5003;42804;55.762;38.084;2023-08-17T11:34:16;9.25;9.00;6.25
56495;PMS5003;42804;55.762;38.084;2023-08-17T11:36:46;9.75;8.50;7.00
56495;PMS5003;42804;55.762;38.084;2023-08-17T11:39:15;6.00;4.75;2.50
56495;PMS5003;42804;55.762;38.084;2023-08-17T11:41:47;8.20;8.20;5.80
56495;PMS5003;42804;55.762;38.084;2023-08-17T11:44:18;9.75;9.75;7.75
56495;PMS5003;42804;55.762;38.084;2023-08-17T11:46:50;9.40;8.80;6.60
56495;PMS5003;42804;55.762;38.084;2023-08-17T11:49:18;6.50;6.50;5.50
56495;PMS5003;42804;55.762;38.084;2023-08-17T11:51:48;10.00;10.00;7.00
56495;PMS5003;42804;55.762;38.084;2023-08-17T11:54:16;8.50;8.25;6.50
56495;PMS5003;42804;55.762;38.084;2023-08-17T11:56:44;9.00;9.00;7.00
56495;PMS5003;42804;55.762;38.084;2023-08-17T11:59:13;7.75;7.75;6.00
56495;PMS5003;42804;55.762;38.084;2023-08-17T12:01:45;7.60;6.80;5.20
56495;PMS5003;42804;55.762;38.084;2023-08-17T12:04:13;8.00;7.80;6.00
56495;PMS5003;42804;55.762;38.084;2023-08-17T12:06:43;7.50;7.50;5.00
56495;PMS5003;42804;55.762;38.084;2023-08-17T12:09:17;10.20;10.00;6.60
56495;PMS5003;42804;55.762;38.084;2023-08-17T12:11:46;9.75;8.75;7.00
56495;PMS5003;42804;55.762;38.084;2023-08-17T12:14:14;7.00;7.00;5.40
56495;PMS5003;42804;55.762;38.084;2023-08-17T12:16:46;9.00;9.00;6.40
56495;PMS5003;42804;55.762;38.084;2023-08-17T12:19:15;8.40;8.00;6.20
56495;PMS5003;42804;55.762;38.084;2023-08-17T12:21:45;7.20;7.20;6.00
56495;PMS5003;42804;55.762;38.084;2023-08-17T12:24:13;5.20;5.00;4.60
56495;PMS5003;42804;55.762;38.084;2023-08-17T12:26:44;5.80;5.00;3.40
56495;PMS5003;42804;55.762;38.084;2023-08-17T12:29:13;5.25;5.25;4.75
56495;PMS5003;42804;55.762;38.084;2023-08-17T12:31:41;8.40;8.40;7.20
56495;PMS5003;42804;55.762;38.084;2023-08-17T12:34:10;10.40;10.00;8.00
56495;PMS5003;42804;55.762;38.084;2023-08-17T12:36:38;7.75;7.50;6.75
56495;PMS5003;42804;55.762;38.084;2023-08-17T12:39:06;7.60;7.60;5.80
56495;PMS5003;42804;55.762;38.084;2023-08-17T12:41:35;7.00;7.00;5.80
56495;PMS5003;42804;55.762;38.084;2023-08-17T12:44:05;9.00;8.40;5.80
56495;PMS5003;42804;55.762;38.084;2023-08-17T12:46:33;9.00;9.00;6.67
56495;PMS5003;42804;55.762;38.084;2023-08-17T12:49:02;9.80;9.40;6.00
56495;PMS5003;42804;55.762;38.084;2023-08-17T12:51:30;9.40;9.40;7.00
56495;PMS5003;42804;55.762;38.084;2023-08-17T12:53:58;10.00;8.75;6.75
56495;PMS5003;42804;55.762;38.084;2023-08-17T12:56:27;8.75;8.75;6.25
56495;PMS5003;42804;55.762;38.084;2023-08-17T12:58:55;9.00;9.00;7.25
56495;PMS5003;42804;55.762;38.084;2023-08-17T13:01:30;9.50;9.00;8.00
56495;PMS5003;42804;55.762;38.084;2023-08-17T13:03:58;7.25;7.25;7.00
56495;PMS5003;42804;55.762;38.084;2023-08-17T13:06:27;8.60;8.60;7.40
56495;PMS5003;42804;55.762;38.084;2023-08-17T13:09:14;8.00;8.00;7.00
56495;PMS5003;42804;55.762;38.084;2023-08-17T13:11:45;9.50;9.00;7.00
56495;PMS5003;42804;55.762;38.084;2023-08-17T13:14:13;9.00;9.00;7.25
56495;PMS5003;42804;55.762;38.084;2023-08-17T13:16:43;7.50;7.50;6.00
56495;PMS5003;42804;55.762;38.084;2023-08-17T13:19:12;8.50;8.00;6.00
56495;PMS5003;42804;55.762;38.084;2023-08-17T13:21:44;9.75;9.50;7.50
56495;PMS5003;42804;55.762;38.084;2023-08-17T13:24:13;8.75;8.75;6.25
56495;PMS5003;42804;55.762;38.084;2023-08-17T13:26:42;8.50;8.50;7.00
56495;PMS5003;42804;55.762;38.084;2023-08-17T13:29:12;8.80;8.60;7.00
56495;PMS5003;42804;55.762;38.084;2023-08-17T13:31:40;11.00;10.25;7.00
56495;PMS5003;42804;55.762;38.084;2023-08-17T13:34:11;7.00;6.25;6.00
56495;PMS5003;42804;55.762;38.084;2023-08-17T13:36:40;11.00;11.00;9.00
56495;PMS5003;42804;55.762;38.084;2023-08-17T13:39:09;9.80;9.40;7.60
56495;PMS5003;42804;55.762;38.084;2023-08-17T13:41:38;11.25;10.00;8.00
56495;PMS5003;42804;55.762;38.084;2023-08-17T13:44:07;8.75;8.50;6.00
56495;PMS5003;42804;55.762;38.084;2023-08-17T13:46:35;9.50;9.50;6.75
56495;PMS5003;42804;55.762;38.084;2023-08-17T13:49:04;10.00;9.25;8.00
56495;PMS5003;42804;55.762;38.084;2023-08-17T13:51:34;8.25;8.00;6.00
56495;PMS5003;42804;55.762;38.084;2023-08-17T13:54:03;9.00;8.60;7.00
56495;PMS5003;42804;55.762;38.084;2023-08-17T13:56:33;8.50;8.25;6.25
56495;PMS5003;42804;55.762;38.084;2023-08-17T13:59:01;8.25;8.25;7.00
56495;PMS5003;42804;55.762;38.084;2023-08-17T14:01:30;7.00;7.00;5.00
56495;PMS5003;42804;55.762;38.084;2023-08-17T14:03:59;9.25;9.25;7.00
56495;PMS5003;42804;55.762;38.084;2023-08-17T14:06:31;9.75;8.75;7.00